sensor_id;sensor_type;location;lat;lon;timestamp;P1;durP1;ratioP1;P2;durP2;ratioP2
84161;SDS011;74285;52.372;12.924;2024-02-26T00:00:30;44.53;;;12.63;;
84161;SDS011;74285;52.372;12.924;2024-02-26T00:02:55;31.67;;;9.40;;
84161;SDS011;74285;52.372;12.924;2024-02-26T00:05:21;27.58;;;8.48;;
84161;SDS011;74285;52.372;12.924;2024-02-26T00:07:46;78.27;;;19.50;;
84161;SDS011;74285;52.372;12.924;2024-02-26T00:10:12;17.95;;;6.47;;
84161;SDS011;74285;52.372;12.924;2024-02-26T00:12:38;6.57;;;3.17;;
84161;SDS011;74285;52.372;12.924;2024-02-26T00:15:04;7.22;;;2.55;;
84161;SDS011;74285;52.372;12.924;2024-02-26T00:17:33;3.40;;;2.20;;
84161;SDS011;74285;52.372;12.924;2024-02-26T00:19:58;5.30;;;2.65;;
84161;SDS011;74285;52.372;12.924;2024-02-26T00:22:23;6.57;;;2.67;;
84161;SDS011;74285;52.372;12.924;2024-02-26T00:24:49;3.83;;;2.40;;
84161;SDS011;74285;52.372;12.924;2024-02-26T00:27:14;6.57;;;3.03;;
84161;SDS011;74285;52.372;12.924;2024-02-26T00:29:39;7.07;;;3.10;;
84161;SDS011;74285;52.372;12.924;2024-02-26T00:32:04;7.03;;;2.73;;
84161;SDS011;74285;52.372;12.924;2024-02-26T00:34:30;5.47;;;2.63;;
84161;SDS011;74285;52.372;12.924;2024-02-26T00:36:55;7.15;;;3.45;;
84161;SDS011;74285;52.372;12.924;2024-02-26T00:39:21;14.07;;;5.13;;
84161;SDS011;74285;52.372;12.924;2024-02-26T00:41:46;21.27;;;6.47;;
84161;SDS011;74285;52.372;12.924;2024-02-26T00:44:11;16.87;;;6.93;;
84161;SDS011;74285;52.372;12.924;2024-02-26T00:46:37;11.53;;;4.47;;
84161;SDS011;74285;52.372;12.924;2024-02-26T00:49:02;8.63;;;3.77;;
84161;SDS011;74285;52.372;12.924;2024-02-26T00:51:27;5.88;;;3.53;;
84161;SDS011;74285;52.372;12.924;2024-02-26T00:53:53;7.83;;;3.53;;
84161;SDS011;74285;52.372;12.924;2024-02-26T00:56:19;3.92;;;2.95;;
84161;SDS011;74285;52.372;12.924;2024-02-26T00:58:44;10.00;;;5.00;;
84161;SDS011;74285;52.372;12.924;2024-02-26T01:01:09;10.37;;;4.10;;
84161;SDS011;74285;52.372;12.924;2024-02-26T01:03:35;6.73;;;3.57;;
84161;SDS011;74285;52.372;12.924;2024-02-26T01:06:00;4.78;;;3.13;;
84161;SDS011;74285;52.372;12.924;2024-02-26T01:08:25;4.07;;;2.43;;
84161;SDS011;74285;52.372;12.924;2024-02-26T01:10:51;5.67;;;2.47;;
84161;SDS011;74285;52.372;12.924;2024-02-26T01:13:16;4.30;;;2.63;;
84161;SDS011;74285;52.372;12.924;2024-02-26T01:15:41;4.87;;;2.30;;
84161;SDS011;74285;52.372;12.924;2024-02-26T01:18:08;6.50;;;2.97;;
84161;SDS011;74285;52.372;12.924;2024-02-26T01:20:34;8.90;;;3.47;;
84161;SDS011;74285;52.372;12.924;2024-02-26T01:22:59;10.00;;;4.47;;
84161;SDS011;74285;52.372;12.924;2024-02-26T01:25:24;7.30;;;3.63;;
84161;SDS011;74285;52.372;12.924;2024-02-26T01:27:50;24.93;;;12.73;;
84161;SDS011;74285;52.372;12.924;2024-02-26T01:30:15;8.23;;;4.18;;
84161;SDS011;74285;52.372;12.924;2024-02-26T01:32:41;3.50;;;2.08;;
84161;SDS011;74285;52.372;12.924;2024-02-26T01:35:07;3.15;;;2.33;;
84161;SDS011;74285;52.372;12.924;2024-02-26T01:37:35;5.68;;;2.92;;
84161;SDS011;74285;52.372;12.924;2024-02-26T01:40:01;3.88;;;2.38;;
84161;SDS011;74285;52.372;12.924;2024-02-26T01:42:28;6.03;;;2.70;;
84161;SDS011;74285;52.372;12.924;2024-02-26T01:44:54;5.28;;;2.92;;
84161;SDS011;74285;52.372;12.924;2024-02-26T01:47:19;4.43;;;2.80;;
84161;SDS011;74285;52.372;12.924;2024-02-26T01:49:44;3.47;;;2.27;;
84161;SDS011;74285;52.372;12.924;2024-02-26T01:52:10;5.70;;;2.33;;
84161;SDS011;74285;52.372;12.924;2024-02-26T01:54:36;4.55;;;2.75;;
84161;SDS011;74285;52.372;12.924;2024-02-26T01:57:03;6.25;;;2.70;;
84161;SDS011;74285;52.372;12.924;2024-02-26T01:59:29;3.85;;;2.42;;
84161;SDS011;74285;52.372;12.924;2024-02-26T02:01:55;3.88;;;2.33;;
84161;SDS011;74285;52.372;12.924;2024-02-26T02:04:23;4.13;;;2.90;;
84161;SDS011;74285;52.372;12.924;2024-02-26T02:06:48;3.60;;;2.58;;
84161;SDS011;74285;52.372;12.924;2024-02-26T02:09:14;4.65;;;2.03;;
84161;SDS011;74285;52.372;12.924;2024-02-26T02:11:39;3.30;;;2.07;;
84161;SDS011;74285;52.372;12.924;2024-02-26T02:14:04;6.60;;;2.90;;
84161;SDS011;74285;52.372;12.924;2024-02-26T02:16:30;7.25;;;3.30;;
84161;SDS011;74285;52.372;12.924;2024-02-26T02:18:56;4.82;;;3.38;;
84161;SDS011;74285;52.372;12.924;2024-02-26T02:21:21;6.47;;;3.43;;
84161;SDS011;74285;52.372;12.924;2024-02-26T02:23:46;11.40;;;3.57;;
84161;SDS011;74285;52.372;12.924;2024-02-26T02:26:13;5.20;;;3.30;;
84161;SDS011;74285;52.372;12.924;2024-02-26T02:28:39;4.50;;;2.80;;
84161;SDS011;74285;52.372;12.924;2024-02-26T02:31:04;6.03;;;2.78;;
84161;SDS011;74285;52.372;12.924;2024-02-26T02:33:30;4.47;;;2.47;;
84161;SDS011;74285;52.372;12.924;2024-02-26T02:35:55;7.40;;;3.67;;
84161;SDS011;74285;52.372;12.924;2024-02-26T02:38:21;5.40;;;2.90;;
84161;SDS011;74285;52.372;12.924;2024-02-26T02:40:48;7.72;;;4.28;;
84161;SDS011;74285;52.372;12.924;2024-02-26T02:43:14;7.17;;;4.17;;
84161;SDS011;74285;52.372;12.924;2024-02-26T02:45:39;6.10;;;3.17;;
84161;SDS011;74285;52.372;12.924;2024-02-26T02:48:04;5.72;;;3.58;;
84161;SDS011;74285;52.372;12.924;2024-02-26T02:50:30;4.40;;;2.70;;
84161;SDS011;74285;52.372;12.924;2024-02-26T02:52:55;3.17;;;2.10;;
84161;SDS011;74285;52.372;12.924;2024-02-26T02:55:20;5.68;;;2.83;;
84161;SDS011;74285;52.372;12.924;2024-02-26T02:57:46;7.47;;;3.23;;
84161;SDS011;74285;52.372;12.924;2024-02-26T03:00:11;4.80;;;2.93;;
84161;SDS011;74285;52.372;12.924;2024-02-26T03:02:37;5.40;;;2.78;;
84161;SDS011;74285;52.372;12.924;2024-02-26T03:05:05;4.07;;;2.30;;
84161;SDS011;74285;52.372;12.924;2024-02-26T03:07:31;3.85;;;2.35;;
84161;SDS011;74285;52.372;12.924;2024-02-26T03:09:56;4.17;;;2.47;;
84161;SDS011;74285;52.372;12.924;2024-02-26T03:12:21;7.63;;;2.92;;
84161;SDS011;74285;52.372;12.924;2024-02-26T03:14:47;4.27;;;2.83;;
84161;SDS011;74285;52.372;12.924;2024-02-26T03:17:12;5.33;;;3.00;;
84161;SDS011;74285;52.372;12.924;2024-02-26T03:19:37;4.17;;;2.60;;
84161;SDS011;74285;52.372;12.924;2024-02-26T03:22:03;3.83;;;2.57;;
84161;SDS011;74285;52.372;12.924;2024-02-26T03:24:28;4.78;;;2.42;;
84161;SDS011;74285;52.372;12.924;2024-02-26T03:26:53;4.30;;;3.23;;
84161;SDS011;74285;52.372;12.924;2024-02-26T03:29:19;5.60;;;2.90;;
84161;SDS011;74285;52.372;12.924;2024-02-26T03:31:44;4.43;;;2.72;;
84161;SDS011;74285;52.372;12.924;2024-02-26T03:34:09;4.50;;;2.40;;
84161;SDS011;74285;52.372;12.924;2024-02-26T03:36:36;5.68;;;2.80;;
84161;SDS011;74285;52.372;12.924;2024-02-26T03:39:02;4.37;;;2.93;;
84161;SDS011;74285;52.372;12.924;2024-02-26T03:41:34;4.25;;;2.60;;
84161;SDS011;74285;52.372;12.924;2024-02-26T03:44:00;4.00;;;2.78;;
84161;SDS011;74285;52.372;12.924;2024-02-26T03:46:26;5.43;;;2.90;;
84161;SDS011;74285;52.372;12.924;2024-02-26T03:48:51;5.13;;;3.13;;
84161;SDS011;74285;52.372;12.924;2024-02-26T03:51:16;4.93;;;3.00;;
84161;SDS011;74285;52.372;12.924;2024-02-26T03:53:41;4.47;;;2.77;;
84161;SDS011;74285;52.372;12.924;2024-02-26T03:56:07;4.63;;;3.27;;
84161;SDS011;74285;52.372;12.924;2024-02-26T03:58:32;5.70;;;3.33;;
84161;SDS011;74285;52.372;12.924;2024-02-26T04:00:58;4.78;;;3.05;;
84161;SDS011;74285;52.372;12.924;2024-02-26T04:03:24;6.65;;;2.95;;
84161;SDS011;74285;52.372;12.924;2024-02-26T04:05:50;4.97;;;2.97;;
84161;SDS011;74285;52.372;12.924;2024-02-26T04:08:15;6.07;;;2.60;;
84161;SDS011;74285;52.372;12.924;2024-02-26T04:10:41;4.33;;;3.13;;
84161;SDS011;74285;52.372;12.924;2024-02-26T04:13:07;4.18;;;2.65;;
84161;SDS011;74285;52.372;12.924;2024-02-26T04:15:32;5.43;;;2.72;;
84161;SDS011;74285;52.372;12.924;2024-02-26T04:17:58;4.00;;;2.50;;
84161;SDS011;74285;52.372;12.924;2024-02-26T04:20:23;4.37;;;2.57;;
84161;SDS011;74285;52.372;12.924;2024-02-26T04:22:48;5.37;;;2.63;;
84161;SDS011;74285;52.372;12.924;2024-02-26T04:25:14;4.93;;;2.88;;
84161;SDS011;74285;52.372;12.924;2024-02-26T04:27:40;5.18;;;2.53;;
84161;SDS011;74285;52.372;12.924;2024-02-26T04:30:05;4.87;;;2.87;;
84161;SDS011;74285;52.372;12.924;2024-02-26T04:32:33;5.18;;;2.83;;
84161;SDS011;74285;52.372;12.924;2024-02-26T04:34:59;6.30;;;3.55;;
84161;SDS011;74285;52.372;12.924;2024-02-26T04:37:25;4.47;;;3.08;;
84161;SDS011;74285;52.372;12.924;2024-02-26T04:39:55;5.57;;;3.05;;
84161;SDS011;74285;52.372;12.924;2024-02-26T04:42:21;6.10;;;2.67;;
84161;SDS011;74285;52.372;12.924;2024-02-26T04:44:46;3.83;;;2.83;;
84161;SDS011;74285;52.372;12.924;2024-02-26T04:47:11;6.47;;;3.10;;
84161;SDS011;74285;52.372;12.924;2024-02-26T04:49:36;5.30;;;3.23;;
84161;SDS011;74285;52.372;12.924;2024-02-26T04:52:02;4.77;;;3.37;;
84161;SDS011;74285;52.372;12.924;2024-02-26T04:54:27;5.20;;;3.45;;
84161;SDS011;74285;52.372;12.924;2024-02-26T04:56:53;6.33;;;3.40;;
84161;SDS011;74285;52.372;12.924;2024-02-26T04:59:18;9.20;;;3.93;;
84161;SDS011;74285;52.372;12.924;2024-02-26T05:01:43;6.03;;;3.13;;
84161;SDS011;74285;52.372;12.924;2024-02-26T05:04:09;7.03;;;3.60;;
84161;SDS011;74285;52.372;12.924;2024-02-26T05:06:36;6.07;;;3.43;;
84161;SDS011;74285;52.372;12.924;2024-02-26T05:09:01;7.10;;;3.67;;
84161;SDS011;74285;52.372;12.924;2024-02-26T05:11:28;7.20;;;4.43;;
84161;SDS011;74285;52.372;12.924;2024-02-26T05:13:53;5.97;;;3.77;;
84161;SDS011;74285;52.372;12.924;2024-02-26T05:16:19;8.83;;;3.93;;
84161;SDS011;74285;52.372;12.924;2024-02-26T05:18:46;10.32;;;5.13;;
84161;SDS011;74285;52.372;12.924;2024-02-26T05:21:11;22.63;;;9.33;;
84161;SDS011;74285;52.372;12.924;2024-02-26T05:23:36;104.57;;;36.73;;
84161;SDS011;74285;52.372;12.924;2024-02-26T05:26:02;53.93;;;22.73;;
84161;SDS011;74285;52.372;12.924;2024-02-26T05:28:27;33.40;;;13.03;;
84161;SDS011;74285;52.372;12.924;2024-02-26T05:30:52;21.80;;;7.47;;
84161;SDS011;74285;52.372;12.924;2024-02-26T05:33:17;14.07;;;6.87;;
84161;SDS011;74285;52.372;12.924;2024-02-26T05:35:43;13.13;;;6.87;;
84161;SDS011;74285;52.372;12.924;2024-02-26T05:38:08;11.93;;;5.87;;
84161;SDS011;74285;52.372;12.924;2024-02-26T05:40:34;10.02;;;6.22;;
84161;SDS011;74285;52.372;12.924;2024-02-26T05:43:00;8.40;;;4.70;;
84161;SDS011;74285;52.372;12.924;2024-02-26T05:45:25;11.40;;;5.97;;
84161;SDS011;74285;52.372;12.924;2024-02-26T05:47:51;9.47;;;5.67;;
84161;SDS011;74285;52.372;12.924;2024-02-26T05:50:16;11.43;;;5.77;;
84161;SDS011;74285;52.372;12.924;2024-02-26T05:52:42;10.57;;;5.65;;
84161;SDS011;74285;52.372;12.924;2024-02-26T05:55:08;14.98;;;5.38;;
84161;SDS011;74285;52.372;12.924;2024-02-26T05:57:34;9.98;;;4.95;;
84161;SDS011;74285;52.372;12.924;2024-02-26T06:00:00;10.52;;;4.57;;
84161;SDS011;74285;52.372;12.924;2024-02-26T06:02:28;7.30;;;4.85;;
84161;SDS011;74285;52.372;12.924;2024-02-26T06:04:57;9.00;;;4.93;;
84161;SDS011;74285;52.372;12.924;2024-02-26T06:07:22;11.35;;;5.50;;
84161;SDS011;74285;52.372;12.924;2024-02-26T06:09:48;8.80;;;5.63;;
84161;SDS011;74285;52.372;12.924;2024-02-26T06:12:13;11.60;;;6.28;;
84161;SDS011;74285;52.372;12.924;2024-02-26T06:14:38;13.47;;;6.73;;
84161;SDS011;74285;52.372;12.924;2024-02-26T06:17:04;13.57;;;7.17;;
84161;SDS011;74285;52.372;12.924;2024-02-26T06:19:29;12.77;;;6.47;;
84161;SDS011;74285;52.372;12.924;2024-02-26T06:21:57;11.63;;;6.30;;
84161;SDS011;74285;52.372;12.924;2024-02-26T06:24:22;20.33;;;7.97;;
84161;SDS011;74285;52.372;12.924;2024-02-26T06:26:48;12.03;;;7.07;;
84161;SDS011;74285;52.372;12.924;2024-02-26T06:29:13;18.90;;;7.22;;
84161;SDS011;74285;52.372;12.924;2024-02-26T06:31:39;15.00;;;7.82;;
84161;SDS011;74285;52.372;12.924;2024-02-26T06:34:04;22.23;;;9.48;;
84161;SDS011;74285;52.372;12.924;2024-02-26T06:36:29;14.03;;;7.83;;
84161;SDS011;74285;52.372;12.924;2024-02-26T06:38:56;16.42;;;8.25;;
84161;SDS011;74285;52.372;12.924;2024-02-26T06:41:22;16.47;;;8.17;;
84161;SDS011;74285;52.372;12.924;2024-02-26T06:43:52;16.23;;;8.40;;
84161;SDS011;74285;52.372;12.924;2024-02-26T06:46:17;17.67;;;9.98;;
84161;SDS011;74285;52.372;12.924;2024-02-26T06:48:42;20.83;;;11.13;;
84161;SDS011;74285;52.372;12.924;2024-02-26T06:51:08;21.03;;;9.80;;
84161;SDS011;74285;52.372;12.924;2024-02-26T06:53:33;16.47;;;8.33;;
84161;SDS011;74285;52.372;12.924;2024-02-26T06:55:58;19.40;;;8.73;;
84161;SDS011;74285;52.372;12.924;2024-02-26T06:58:24;16.20;;;8.10;;
84161;SDS011;74285;52.372;12.924;2024-02-26T07:00:49;13.83;;;6.57;;
84161;SDS011;74285;52.372;12.924;2024-02-26T07:03:14;15.90;;;7.90;;
84161;SDS011;74285;52.372;12.924;2024-02-26T07:05:40;15.48;;;7.47;;
84161;SDS011;74285;52.372;12.924;2024-02-26T07:08:05;16.97;;;7.60;;
84161;SDS011;74285;52.372;12.924;2024-02-26T07:10:31;11.88;;;6.13;;
84161;SDS011;74285;52.372;12.924;2024-02-26T07:12:56;9.50;;;6.23;;
84161;SDS011;74285;52.372;12.924;2024-02-26T07:15:21;10.73;;;5.63;;
84161;SDS011;74285;52.372;12.924;2024-02-26T07:17:47;11.33;;;6.40;;
84161;SDS011;74285;52.372;12.924;2024-02-26T07:20:14;11.75;;;6.40;;
84161;SDS011;74285;52.372;12.924;2024-02-26T07:22:39;15.13;;;8.15;;
84161;SDS011;74285;52.372;12.924;2024-02-26T07:25:05;15.85;;;7.72;;
84161;SDS011;74285;52.372;12.924;2024-02-26T07:27:32;14.10;;;6.50;;
84161;SDS011;74285;52.372;12.924;2024-02-26T07:30:00;16.85;;;8.15;;
84161;SDS011;74285;52.372;12.924;2024-02-26T07:32:25;10.87;;;5.80;;
84161;SDS011;74285;52.372;12.924;2024-02-26T07:34:51;12.70;;;7.13;;
84161;SDS011;74285;52.372;12.924;2024-02-26T07:37:16;10.83;;;6.17;;
84161;SDS011;74285;52.372;12.924;2024-02-26T07:42:07;9.83;;;6.10;;
84161;SDS011;74285;52.372;12.924;2024-02-26T07:44:33;9.90;;;6.50;;
84161;SDS011;74285;52.372;12.924;2024-02-26T07:46:58;12.75;;;7.18;;
84161;SDS011;74285;52.372;12.924;2024-02-26T07:49:24;12.13;;;7.00;;
84161;SDS011;74285;52.372;12.924;2024-02-26T07:51:49;14.57;;;8.33;;
84161;SDS011;74285;52.372;12.924;2024-02-26T07:54:14;13.47;;;6.83;;
84161;SDS011;74285;52.372;12.924;2024-02-26T07:59:06;14.98;;;7.38;;
84161;SDS011;74285;52.372;12.924;2024-02-26T08:01:31;15.70;;;7.77;;
84161;SDS011;74285;52.372;12.924;2024-02-26T08:03:58;12.48;;;7.32;;
84161;SDS011;74285;52.372;12.924;2024-02-26T08:06:23;13.40;;;8.33;;
84161;SDS011;74285;52.372;12.924;2024-02-26T08:08:49;16.27;;;8.32;;
84161;SDS011;74285;52.372;12.924;2024-02-26T08:11:15;14.95;;;7.93;;
84161;SDS011;74285;52.372;12.924;2024-02-26T08:13:40;17.15;;;8.52;;
84161;SDS011;74285;52.372;12.924;2024-02-26T08:16:06;14.05;;;8.50;;
84161;SDS011;74285;52.372;12.924;2024-02-26T08:18:31;13.53;;;7.80;;
84161;SDS011;74285;52.372;12.924;2024-02-26T08:20:57;14.70;;;8.30;;
84161;SDS011;74285;52.372;12.924;2024-02-26T08:23:22;16.73;;;8.57;;
84161;SDS011;74285;52.372;12.924;2024-02-26T08:25:47;17.27;;;8.70;;
84161;SDS011;74285;52.372;12.924;2024-02-26T08:28:13;16.40;;;8.97;;
84161;SDS011;74285;52.372;12.924;2024-02-26T08:30:39;15.52;;;8.63;;
84161;SDS011;74285;52.372;12.924;2024-02-26T08:33:04;13.67;;;7.17;;
84161;SDS011;74285;52.372;12.924;2024-02-26T08:35:29;16.27;;;8.47;;
84161;SDS011;74285;52.372;12.924;2024-02-26T08:37:54;17.57;;;8.83;;
84161;SDS011;74285;52.372;12.924;2024-02-26T08:40:20;19.87;;;9.17;;
84161;SDS011;74285;52.372;12.924;2024-02-26T08:42:45;17.13;;;8.73;;
84161;SDS011;74285;52.372;12.924;2024-02-26T08:45:11;16.77;;;7.90;;
84161;SDS011;74285;52.372;12.924;2024-02-26T08:47:37;16.35;;;8.52;;
84161;SDS011;74285;52.372;12.924;2024-02-26T08:50:03;18.10;;;8.73;;
84161;SDS011;74285;52.372;12.924;2024-02-26T08:52:31;17.30;;;8.63;;
84161;SDS011;74285;52.372;12.924;2024-02-26T08:54:56;17.50;;;8.37;;
84161;SDS011;74285;52.372;12.924;2024-02-26T08:57:22;16.67;;;8.27;;
84161;SDS011;74285;52.372;12.924;2024-02-26T08:59:47;18.30;;;9.15;;
84161;SDS011;74285;52.372;12.924;2024-02-26T09:02:13;19.63;;;8.80;;
84161;SDS011;74285;52.372;12.924;2024-02-26T09:04:38;19.50;;;10.10;;
84161;SDS011;74285;52.372;12.924;2024-02-26T09:07:03;16.43;;;9.20;;
84161;SDS011;74285;52.372;12.924;2024-02-26T09:09:29;14.67;;;8.87;;
84161;SDS011;74285;52.372;12.924;2024-02-26T09:11:54;18.20;;;9.10;;
84161;SDS011;74285;52.372;12.924;2024-02-26T09:14:20;16.55;;;8.73;;
84161;SDS011;74285;52.372;12.924;2024-02-26T09:16:46;14.90;;;8.10;;
84161;SDS011;74285;52.372;12.924;2024-02-26T09:19:13;16.25;;;8.68;;
84161;SDS011;74285;52.372;12.924;2024-02-26T09:21:41;18.03;;;9.00;;
84161;SDS011;74285;52.372;12.924;2024-02-26T09:24:07;15.15;;;8.85;;
84161;SDS011;74285;52.372;12.924;2024-02-26T09:26:33;18.50;;;8.80;;
84161;SDS011;74285;52.372;12.924;2024-02-26T09:28:58;16.30;;;8.50;;
84161;SDS011;74285;52.372;12.924;2024-02-26T09:31:23;16.95;;;9.73;;
84161;SDS011;74285;52.372;12.924;2024-02-26T09:33:49;17.50;;;8.88;;
84161;SDS011;74285;52.372;12.924;2024-02-26T09:36:16;16.67;;;10.32;;
84161;SDS011;74285;52.372;12.924;2024-02-26T09:38:41;19.43;;;10.33;;
84161;SDS011;74285;52.372;12.924;2024-02-26T09:41:06;17.70;;;10.03;;
84161;SDS011;74285;52.372;12.924;2024-02-26T09:43:36;16.38;;;9.00;;
84161;SDS011;74285;52.372;12.924;2024-02-26T09:46:04;17.50;;;9.70;;
84161;SDS011;74285;52.372;12.924;2024-02-26T09:48:31;16.63;;;9.27;;
84161;SDS011;74285;52.372;12.924;2024-02-26T09:50:58;20.95;;;9.70;;
84161;SDS011;74285;52.372;12.924;2024-02-26T09:53:24;18.90;;;8.88;;
84161;SDS011;74285;52.372;12.924;2024-02-26T09:55:50;17.17;;;8.80;;
84161;SDS011;74285;52.372;12.924;2024-02-26T09:58:15;17.30;;;8.97;;
84161;SDS011;74285;52.372;12.924;2024-02-26T10:00:43;17.83;;;8.48;;
84161;SDS011;74285;52.372;12.924;2024-02-26T10:03:13;15.35;;;8.30;;
84161;SDS011;74285;52.372;12.924;2024-02-26T10:05:40;16.42;;;7.80;;
84161;SDS011;74285;52.372;12.924;2024-02-26T10:08:06;19.33;;;8.40;;
84161;SDS011;74285;52.372;12.924;2024-02-26T10:10:31;17.23;;;8.05;;
84161;SDS011;74285;52.372;12.924;2024-02-26T10:12:58;14.27;;;7.88;;
84161;SDS011;74285;52.372;12.924;2024-02-26T10:15:25;16.45;;;8.43;;
84161;SDS011;74285;52.372;12.924;2024-02-26T10:17:52;14.27;;;7.97;;
84161;SDS011;74285;52.372;12.924;2024-02-26T10:20:17;16.60;;;7.27;;
84161;SDS011;74285;52.372;12.924;2024-02-26T10:22:44;14.88;;;7.65;;
84161;SDS011;74285;52.372;12.924;2024-02-26T10:25:09;14.10;;;7.50;;
84161;SDS011;74285;52.372;12.924;2024-02-26T10:27:36;14.38;;;8.20;;
84161;SDS011;74285;52.372;12.924;2024-02-26T10:30:04;17.25;;;7.75;;
84161;SDS011;74285;52.372;12.924;2024-02-26T10:32:45;14.10;;;7.43;;
84161;SDS011;74285;52.372;12.924;2024-02-26T10:35:12;13.38;;;6.45;;
84161;SDS011;74285;52.372;12.924;2024-02-26T10:37:40;13.23;;;7.55;;
84161;SDS011;74285;52.372;12.924;2024-02-26T10:40:13;13.68;;;7.28;;
84161;SDS011;74285;52.372;12.924;2024-02-26T10:42:39;14.15;;;6.63;;
84161;SDS011;74285;52.372;12.924;2024-02-26T10:47:31;10.52;;;5.45;;
84161;SDS011;74285;52.372;12.924;2024-02-26T10:49:58;15.70;;;6.85;;
84161;SDS011;74285;52.372;12.924;2024-02-26T10:52:24;15.02;;;7.43;;
84161;SDS011;74285;52.372;12.924;2024-02-26T10:54:50;14.43;;;7.00;;
84161;SDS011;74285;52.372;12.924;2024-02-26T10:57:19;12.13;;;6.90;;
84161;SDS011;74285;52.372;12.924;2024-02-26T10:59:45;11.85;;;6.30;;
84161;SDS011;74285;52.372;12.924;2024-02-26T11:02:10;12.57;;;6.97;;
84161;SDS011;74285;52.372;12.924;2024-02-26T11:07:02;11.73;;;5.43;;
84161;SDS011;74285;52.372;12.924;2024-02-26T11:09:29;12.15;;;6.50;;
84161;SDS011;74285;52.372;12.924;2024-02-26T11:11:55;13.43;;;6.20;;
84161;SDS011;74285;52.372;12.924;2024-02-26T11:14:22;13.23;;;5.55;;
84161;SDS011;74285;52.372;12.924;2024-02-26T11:16:50;10.65;;;5.65;;
84161;SDS011;74285;52.372;12.924;2024-02-26T11:19:16;11.30;;;6.10;;
84161;SDS011;74285;52.372;12.924;2024-02-26T11:21:41;14.18;;;7.82;;
84161;SDS011;74285;52.372;12.924;2024-02-26T11:24:11;14.82;;;7.38;;
84161;SDS011;74285;52.372;12.924;2024-02-26T11:26:51;13.60;;;8.00;;
84161;SDS011;74285;52.372;12.924;2024-02-26T11:29:24;24.63;;;12.40;;
84161;SDS011;74285;52.372;12.924;2024-02-26T11:31:51;15.60;;;7.55;;
84161;SDS011;74285;52.372;12.924;2024-02-26T11:36:42;17.30;;;8.10;;
84161;SDS011;74285;52.372;12.924;2024-02-26T11:39:10;26.70;;;10.45;;
84161;SDS011;74285;52.372;12.924;2024-02-26T11:41:37;11.23;;;5.82;;
84161;SDS011;74285;52.372;12.924;2024-02-26T11:44:03;9.18;;;4.78;;
84161;SDS011;74285;52.372;12.924;2024-02-26T11:46:32;14.85;;;6.13;;
84161;SDS011;74285;52.372;12.924;2024-02-26T11:49:02;20.05;;;10.00;;
84161;SDS011;74285;52.372;12.924;2024-02-26T11:51:33;19.77;;;9.35;;
84161;SDS011;74285;52.372;12.924;2024-02-26T11:53:59;16.88;;;7.85;;
84161;SDS011;74285;52.372;12.924;2024-02-26T11:56:25;19.77;;;7.20;;
84161;SDS011;74285;52.372;12.924;2024-02-26T11:58:58;11.45;;;5.65;;
84161;SDS011;74285;52.372;12.924;2024-02-26T12:01:44;12.25;;;5.65;;
84161;SDS011;74285;52.372;12.924;2024-02-26T12:04:13;14.95;;;6.05;;
84161;SDS011;74285;52.372;12.924;2024-02-26T12:06:42;7.60;;;4.53;;
84161;SDS011;74285;52.372;12.924;2024-02-26T12:09:08;8.73;;;4.68;;
84161;SDS011;74285;52.372;12.924;2024-02-26T12:11:36;24.70;;;10.27;;
84161;SDS011;74285;52.372;12.924;2024-02-26T12:14:03;16.75;;;8.23;;
84161;SDS011;74285;52.372;12.924;2024-02-26T12:16:38;15.07;;;7.47;;
84161;SDS011;74285;52.372;12.924;2024-02-26T12:19:05;13.48;;;7.45;;
84161;SDS011;74285;52.372;12.924;2024-02-26T12:21:35;12.68;;;6.97;;
84161;SDS011;74285;52.372;12.924;2024-02-26T12:24:14;14.48;;;7.03;;
84161;SDS011;74285;52.372;12.924;2024-02-26T12:26:40;11.45;;;6.55;;
84161;SDS011;74285;52.372;12.924;2024-02-26T12:29:06;13.02;;;7.32;;
84161;SDS011;74285;52.372;12.924;2024-02-26T12:31:32;20.30;;;9.20;;
84161;SDS011;74285;52.372;12.924;2024-02-26T12:33:58;14.95;;;8.35;;
84161;SDS011;74285;52.372;12.924;2024-02-26T12:36:24;17.02;;;7.43;;
84161;SDS011;74285;52.372;12.924;2024-02-26T12:38:52;13.73;;;6.90;;
84161;SDS011;74285;52.372;12.924;2024-02-26T12:41:17;12.13;;;6.78;;
84161;SDS011;74285;52.372;12.924;2024-02-26T12:43:43;14.30;;;6.80;;
84161;SDS011;74285;52.372;12.924;2024-02-26T12:46:08;17.05;;;7.68;;
84161;SDS011;74285;52.372;12.924;2024-02-26T12:48:33;17.17;;;8.33;;
84161;SDS011;74285;52.372;12.924;2024-02-26T12:50:59;10.70;;;6.07;;
84161;SDS011;74285;52.372;12.924;2024-02-26T12:53:25;14.98;;;6.38;;
84161;SDS011;74285;52.372;12.924;2024-02-26T12:55:50;8.95;;;5.10;;
84161;SDS011;74285;52.372;12.924;2024-02-26T12:58:15;12.00;;;5.77;;
84161;SDS011;74285;52.372;12.924;2024-02-26T13:00:41;9.68;;;5.20;;
84161;SDS011;74285;52.372;12.924;2024-02-26T13:03:07;8.65;;;4.95;;
84161;SDS011;74285;52.372;12.924;2024-02-26T13:05:32;11.90;;;6.13;;
84161;SDS011;74285;52.372;12.924;2024-02-26T13:07:58;9.77;;;5.05;;
84161;SDS011;74285;52.372;12.924;2024-02-26T13:10:23;12.63;;;5.20;;
84161;SDS011;74285;52.372;12.924;2024-02-26T13:12:50;10.68;;;5.85;;
84161;SDS011;74285;52.372;12.924;2024-02-26T13:15:16;8.03;;;4.80;;
84161;SDS011;74285;52.372;12.924;2024-02-26T13:17:43;8.35;;;4.35;;
84161;SDS011;74285;52.372;12.924;2024-02-26T13:22:37;8.85;;;4.22;;
84161;SDS011;74285;52.372;12.924;2024-02-26T13:27:29;10.20;;;4.35;;
84161;SDS011;74285;52.372;12.924;2024-02-26T13:30:10;7.30;;;4.13;;
84161;SDS011;74285;52.372;12.924;2024-02-26T13:32:37;7.03;;;3.95;;
84161;SDS011;74285;52.372;12.924;2024-02-26T13:37:38;7.65;;;4.15;;
84161;SDS011;74285;52.372;12.924;2024-02-26T13:42:35;6.85;;;3.95;;
84161;SDS011;74285;52.372;12.924;2024-02-26T13:45:00;7.32;;;4.22;;
84161;SDS011;74285;52.372;12.924;2024-02-26T13:47:26;8.40;;;3.85;;
84161;SDS011;74285;52.372;12.924;2024-02-26T13:49:52;8.40;;;4.13;;
84161;SDS011;74285;52.372;12.924;2024-02-26T13:52:17;8.87;;;3.70;;
84161;SDS011;74285;52.372;12.924;2024-02-26T13:54:42;7.87;;;3.90;;
84161;SDS011;74285;52.372;12.924;2024-02-26T13:57:08;5.57;;;3.38;;
84161;SDS011;74285;52.372;12.924;2024-02-26T13:59:34;7.63;;;3.70;;
84161;SDS011;74285;52.372;12.924;2024-02-26T14:01:59;7.17;;;3.23;;
84161;SDS011;74285;52.372;12.924;2024-02-26T14:04:25;7.70;;;3.93;;
84161;SDS011;74285;52.372;12.924;2024-02-26T14:06:50;6.73;;;3.63;;
84161;SDS011;74285;52.372;12.924;2024-02-26T14:11:43;9.45;;;4.25;;
84161;SDS011;74285;52.372;12.924;2024-02-26T14:14:12;8.18;;;3.45;;
84161;SDS011;74285;52.372;12.924;2024-02-26T14:16:37;7.63;;;4.00;;
84161;SDS011;74285;52.372;12.924;2024-02-26T14:19:04;7.67;;;3.63;;
84161;SDS011;74285;52.372;12.924;2024-02-26T14:21:29;6.50;;;3.40;;
84161;SDS011;74285;52.372;12.924;2024-02-26T14:23:56;10.68;;;4.70;;
84161;SDS011;74285;52.372;12.924;2024-02-26T14:26:22;8.85;;;4.85;;
84161;SDS011;74285;52.372;12.924;2024-02-26T14:28:47;8.23;;;4.32;;
84161;SDS011;74285;52.372;12.924;2024-02-26T14:31:12;5.97;;;3.80;;
84161;SDS011;74285;52.372;12.924;2024-02-26T14:33:38;6.53;;;3.30;;
84161;SDS011;74285;52.372;12.924;2024-02-26T14:36:05;5.47;;;2.90;;
84161;SDS011;74285;52.372;12.924;2024-02-26T14:38:31;6.97;;;2.78;;
84161;SDS011;74285;52.372;12.924;2024-02-26T14:40:56;3.67;;;2.33;;
84161;SDS011;74285;52.372;12.924;2024-02-26T14:43:22;3.57;;;2.17;;